sensor_id;sensor_type;location;lat;lon;timestamp;temperature;humidity
7196;DHT22;3639;51.308;5.624;2024-03-06T00:00:16;6.20;99.90
7196;DHT22;3639;51.308;5.624;2024-03-06T00:02:43;6.10;99.90
7196;DHT22;3639;51.308;5.624;2024-03-06T00:05:08;6.10;99.90
7196;DHT22;3639;51.308;5.624;2024-03-06T00:07:34;6.10;99.90
7196;DHT22;3639;51.308;5.624;2024-03-06T00:10:00;6.10;99.90
7196;DHT22;3639;51.308;5.624;2024-03-06T00:12:25;6.00;99.90
7196;DHT22;3639;51.308;5.624;2024-03-06T00:14:51;6.00;99.90
7196;DHT22;3639;51.308;5.624;2024-03-06T00:17:16;5.90;99.90
7196;DHT22;3639;51.308;5.624;2024-03-06T00:19:42;5.90;99.90
7196;DHT22;3639;51.308;5.624;2024-03-06T00:22:09;5.80;99.90
7196;DHT22;3639;51.308;5.624;2024-03-06T00:24:35;5.70;99.90
7196;DHT22;3639;51.308;5.624;2024-03-06T00:27:00;5.70;99.90
7196;DHT22;3639;51.308;5.624;2024-03-06T00:29:27;5.70;99.90
7196;DHT22;3639;51.308;5.624;2024-03-06T00:31:52;5.70;99.90
7196;DHT22;3639;51.308;5.624;2024-03-06T00:34:18;5.70;99.90
7196;DHT22;3639;51.308;5.624;2024-03-06T00:36:44;5.70;99.90
7196;DHT22;3639;51.308;5.624;2024-03-06T00:39:10;5.70;99.90
7196;DHT22;3639;51.308;5.624;2024-03-06T00:41:36;5.70;99.90
7196;DHT22;3639;51.308;5.624;2024-03-06T00:44:02;5.70;99.90
7196;DHT22;3639;51.308;5.624;2024-03-06T00:46:28;5.60;99.90
7196;DHT22;3639;51.308;5.624;2024-03-06T00:48:53;5.60;99.90
7196;DHT22;3639;51.308;5.624;2024-03-06T00:51:20;5.50;99.90
7196;DHT22;3639;51.308;5.624;2024-03-06T00:53:45;5.50;99.90
7196;DHT22;3639;51.308;5.624;2024-03-06T00:56:11;5.40;99.90
7196;DHT22;3639;51.308;5.624;2024-03-06T00:58:37;5.40;99.90
7196;DHT22;3639;51.308;5.624;2024-03-06T01:01:03;5.30;99.90
7196;DHT22;3639;51.308;5.624;2024-03-06T01:03:29;5.30;99.90
7196;DHT22;3639;51.308;5.624;2024-03-06T01:05:55;5.20;99.90
7196;DHT22;3639;51.308;5.624;2024-03-06T01:08:25;5.20;99.90
7196;DHT22;3639;51.308;5.624;2024-03-06T01:10:51;5.10;99.90
7196;DHT22;3639;51.308;5.624;2024-03-06T01:13:18;5.10;99.90
7196;DHT22;3639;51.308;5.624;2024-03-06T01:15:43;5.00;99.90
7196;DHT22;3639;51.308;5.624;2024-03-06T01:18:09;4.90;99.90
7196;DHT22;3639;51.308;5.624;2024-03-06T01:20:34;4.90;99.90
7196;DHT22;3639;51.308;5.624;2024-03-06T01:23:01;4.80;99.90
7196;DHT22;3639;51.308;5.624;2024-03-06T01:25:28;4.80;99.90
7196;DHT22;3639;51.308;5.624;2024-03-06T01:27:55;4.80;99.90
7196;DHT22;3639;51.308;5.624;2024-03-06T01:30:20;4.70;99.90
7196;DHT22;3639;51.308;5.624;2024-03-06T01:32:49;4.70;99.90
7196;DHT22;3639;51.308;5.624;2024-03-06T01:35:16;4.70;99.90
7196;DHT22;3639;51.308;5.624;2024-03-06T01:37:42;4.70;99.90
7196;DHT22;3639;51.308;5.624;2024-03-06T01:40:08;4.60;99.90
7196;DHT22;3639;51.308;5.624;2024-03-06T01:42:34;4.60;99.90
7196;DHT22;3639;51.308;5.624;2024-03-06T01:44:59;4.60;99.90
7196;DHT22;3639;51.308;5.624;2024-03-06T01:47:27;4.50;99.90
7196;DHT22;3639;51.308;5.624;2024-03-06T01:49:52;4.50;99.90
7196;DHT22;3639;51.308;5.624;2024-03-06T01:52:19;4.40;99.90
7196;DHT22;3639;51.308;5.624;2024-03-06T01:54:48;4.40;99.90
7196;DHT22;3639;51.308;5.624;2024-03-06T01:57:15;4.40;99.90
7196;DHT22;3639;51.308;5.624;2024-03-06T01:59:42;4.40;99.90
7196;DHT22;3639;51.308;5.624;2024-03-06T02:02:08;4.40;99.90
7196;DHT22;3639;51.308;5.624;2024-03-06T02:04:37;4.30;99.90
7196;DHT22;3639;51.308;5.624;2024-03-06T02:07:03;4.40;99.90
7196;DHT22;3639;51.308;5.624;2024-03-06T02:09:28;4.30;99.90
7196;DHT22;3639;51.308;5.624;2024-03-06T02:11:57;4.30;99.90
7196;DHT22;3639;51.308;5.624;2024-03-06T02:14:24;4.20;99.90
7196;DHT22;3639;51.308;5.624;2024-03-06T02:16:50;4.20;99.90
7196;DHT22;3639;51.308;5.624;2024-03-06T02:19:16;4.10;99.90
7196;DHT22;3639;51.308;5.624;2024-03-06T02:21:41;4.10;99.90
7196;DHT22;3639;51.308;5.624;2024-03-06T02:24:07;4.10;99.90
7196;DHT22;3639;51.308;5.624;2024-03-06T02:26:36;4.10;99.90
7196;DHT22;3639;51.308;5.624;2024-03-06T02:29:02;4.10;99.90
7196;DHT22;3639;51.308;5.624;2024-03-06T02:31:27;4.00;99.90
7196;DHT22;3639;51.308;5.624;2024-03-06T02:33:53;4.00;99.90
7196;DHT22;3639;51.308;5.624;2024-03-06T02:36:19;3.90;99.90
7196;DHT22;3639;51.308;5.624;2024-03-06T02:38:45;3.90;99.90
7196;DHT22;3639;51.308;5.624;2024-03-06T02:41:11;3.90;99.90
7196;DHT22;3639;51.308;5.624;2024-03-06T02:43:39;3.80;99.90
7196;DHT22;3639;51.308;5.624;2024-03-06T02:46:05;3.80;99.90
7196;DHT22;3639;51.308;5.624;2024-03-06T02:48:30;3.80;99.90
7196;DHT22;3639;51.308;5.624;2024-03-06T02:50:57;3.80;99.90
7196;DHT22;3639;51.308;5.624;2024-03-06T02:53:23;3.70;99.90
7196;DHT22;3639;51.308;5.624;2024-03-06T02:55:50;3.70;99.90
7196;DHT22;3639;51.308;5.624;2024-03-06T02:58:16;3.70;99.90
7196;DHT22;3639;51.308;5.624;2024-03-06T03:00:42;3.70;99.90
7196;DHT22;3639;51.308;5.624;2024-03-06T03:03:08;3.70;99.90
7196;DHT22;3639;51.308;5.624;2024-03-06T03:05:33;3.70;99.90
7196;DHT22;3639;51.308;5.624;2024-03-06T03:07:59;3.70;99.90
7196;DHT22;3639;51.308;5.624;2024-03-06T03:10:25;3.70;99.90
7196;DHT22;3639;51.308;5.624;2024-03-06T03:12:51;3.60;99.90
7196;DHT22;3639;51.308;5.624;2024-03-06T03:15:17;3.60;99.90
7196;DHT22;3639;51.308;5.624;2024-03-06T03:17:42;3.50;99.90
7196;DHT22;3639;51.308;5.624;2024-03-06T03:20:08;3.50;99.90
7196;DHT22;3639;51.308;5.624;2024-03-06T03:22:38;3.50;99.90
7196;DHT22;3639;51.308;5.624;2024-03-06T03:25:07;3.50;99.90
7196;DHT22;3639;51.308;5.624;2024-03-06T03:27:33;3.40;99.90
7196;DHT22;3639;51.308;5.624;2024-03-06T03:29:58;3.40;99.90
7196;DHT22;3639;51.308;5.624;2024-03-06T03:32:24;3.40;99.90
7196;DHT22;3639;51.308;5.624;2024-03-06T03:34:49;3.40;99.90
7196;DHT22;3639;51.308;5.624;2024-03-06T03:37:15;3.40;99.90
7196;DHT22;3639;51.308;5.624;2024-03-06T03:39:41;3.40;99.90
7196;DHT22;3639;51.308;5.624;2024-03-06T03:42:08;3.40;99.90
7196;DHT22;3639;51.308;5.624;2024-03-06T03:44:34;3.40;99.90
7196;DHT22;3639;51.308;5.624;2024-03-06T03:47:00;3.40;99.90
7196;DHT22;3639;51.308;5.624;2024-03-06T03:49:25;3.40;99.90
7196;DHT22;3639;51.308;5.624;2024-03-06T03:51:51;3.30;99.90
7196;DHT22;3639;51.308;5.624;2024-03-06T03:54:17;3.30;99.90
7196;DHT22;3639;51.308;5.624;2024-03-06T03:56:43;3.30;99.90
7196;DHT22;3639;51.308;5.624;2024-03-06T03:59:08;3.20;99.90
7196;DHT22;3639;51.308;5.624;2024-03-06T04:01:34;3.20;99.90
7196;DHT22;3639;51.308;5.624;2024-03-06T04:03:59;3.20;99.90
7196;DHT22;3639;51.308;5.624;2024-03-06T04:06:25;3.10;99.90
7196;DHT22;3639;51.308;5.624;2024-03-06T04:08:51;3.10;99.90
7196;DHT22;3639;51.308;5.624;2024-03-06T04:11:16;3.00;99.90
7196;DHT22;3639;51.308;5.624;2024-03-06T04:13:42;3.00;99.90
7196;DHT22;3639;51.308;5.624;2024-03-06T04:16:07;3.00;99.90
7196;DHT22;3639;51.308;5.624;2024-03-06T04:18:34;2.90;99.90
7196;DHT22;3639;51.308;5.624;2024-03-06T04:21:06;2.90;99.90
7196;DHT22;3639;51.308;5.624;2024-03-06T04:23:33;2.90;99.90
7196;DHT22;3639;51.308;5.624;2024-03-06T04:25:59;2.80;99.90
7196;DHT22;3639;51.308;5.624;2024-03-06T04:28:25;2.80;99.90
7196;DHT22;3639;51.308;5.624;2024-03-06T04:30:51;2.70;99.90
7196;DHT22;3639;51.308;5.624;2024-03-06T04:33:17;2.70;99.90
7196;DHT22;3639;51.308;5.624;2024-03-06T04:35:42;2.60;99.90
7196;DHT22;3639;51.308;5.624;2024-03-06T04:38:08;2.60;99.90
7196;DHT22;3639;51.308;5.624;2024-03-06T04:40:34;2.60;99.90
7196;DHT22;3639;51.308;5.624;2024-03-06T04:43:00;2.60;99.90
7196;DHT22;3639;51.308;5.624;2024-03-06T04:45:26;2.60;99.90
7196;DHT22;3639;51.308;5.624;2024-03-06T04:47:52;2.60;99.90
7196;DHT22;3639;51.308;5.624;2024-03-06T04:50:17;2.60;99.90
7196;DHT22;3639;51.308;5.624;2024-03-06T04:52:43;2.60;99.90
7196;DHT22;3639;51.308;5.624;2024-03-06T04:55:10;2.60;99.90
7196;DHT22;3639;51.308;5.624;2024-03-06T04:57:37;2.60;99.90
7196;DHT22;3639;51.308;5.624;2024-03-06T05:00:03;2.60;99.90
7196;DHT22;3639;51.308;5.624;2024-03-06T05:02:32;2.60;99.90
7196;DHT22;3639;51.308;5.624;2024-03-06T05:05:00;2.60;99.90
7196;DHT22;3639;51.308;5.624;2024-03-06T05:07:30;2.60;99.90
7196;DHT22;3639;51.308;5.624;2024-03-06T05:09:57;2.60;99.90
7196;DHT22;3639;51.308;5.624;2024-03-06T05:12:23;2.50;99.90
7196;DHT22;3639;51.308;5.624;2024-03-06T05:14:49;2.50;99.90
7196;DHT22;3639;51.308;5.624;2024-03-06T05:17:15;2.50;99.90
7196;DHT22;3639;51.308;5.624;2024-03-06T05:19:40;2.40;99.90
7196;DHT22;3639;51.308;5.624;2024-03-06T05:22:09;2.50;99.90
7196;DHT22;3639;51.308;5.624;2024-03-06T05:24:37;2.50;99.90
7196;DHT22;3639;51.308;5.624;2024-03-06T05:27:02;2.50;99.90
7196;DHT22;3639;51.308;5.624;2024-03-06T05:29:28;2.50;99.90
7196;DHT22;3639;51.308;5.624;2024-03-06T05:31:54;2.50;99.90
7196;DHT22;3639;51.308;5.624;2024-03-06T05:34:24;2.50;99.90
7196;DHT22;3639;51.308;5.624;2024-03-06T05:36:50;2.50;99.90
7196;DHT22;3639;51.308;5.624;2024-03-06T05:39:15;2.50;99.90
7196;DHT22;3639;51.308;5.624;2024-03-06T05:41:43;2.40;99.90
7196;DHT22;3639;51.308;5.624;2024-03-06T05:44:09;2.40;99.90
7196;DHT22;3639;51.308;5.624;2024-03-06T05:46:35;2.30;99.90
7196;DHT22;3639;51.308;5.624;2024-03-06T05:49:02;2.30;99.90
7196;DHT22;3639;51.308;5.624;2024-03-06T05:51:28;2.30;99.90
7196;DHT22;3639;51.308;5.624;2024-03-06T05:53:54;2.40;99.90
7196;DHT22;3639;51.308;5.624;2024-03-06T05:56:19;2.40;99.90
7196;DHT22;3639;51.308;5.624;2024-03-06T05:58:46;2.30;99.90
7196;DHT22;3639;51.308;5.624;2024-03-06T06:01:12;2.30;99.90
7196;DHT22;3639;51.308;5.624;2024-03-06T06:03:41;2.30;99.90
7196;DHT22;3639;51.308;5.624;2024-03-06T06:06:06;2.40;99.90
7196;DHT22;3639;51.308;5.624;2024-03-06T06:08:33;2.30;99.90
7196;DHT22;3639;51.308;5.624;2024-03-06T06:11:00;2.30;99.90
7196;DHT22;3639;51.308;5.624;2024-03-06T06:13:29;2.30;99.90
7196;DHT22;3639;51.308;5.624;2024-03-06T06:15:58;2.30;99.90
7196;DHT22;3639;51.308;5.624;2024-03-06T06:18:24;2.30;99.90
7196;DHT22;3639;51.308;5.624;2024-03-06T06:20:49;2.30;99.90
7196;DHT22;3639;51.308;5.624;2024-03-06T06:23:15;2.30;99.90
7196;DHT22;3639;51.308;5.624;2024-03-06T06:25:40;2.30;99.90
7196;DHT22;3639;51.308;5.624;2024-03-06T06:28:07;2.30;99.90
7196;DHT22;3639;51.308;5.624;2024-03-06T06:30:35;2.30;99.90
7196;DHT22;3639;51.308;5.624;2024-03-06T06:33:01;2.30;99.90
7196;DHT22;3639;51.308;5.624;2024-03-06T06:35:27;2.30;99.90
7196;DHT22;3639;51.308;5.624;2024-03-06T06:37:52;2.30;99.90
7196;DHT22;3639;51.308;5.624;2024-03-06T06:40:18;2.30;99.90
7196;DHT22;3639;51.308;5.624;2024-03-06T06:42:49;2.30;99.90
7196;DHT22;3639;51.308;5.624;2024-03-06T06:45:20;2.30;99.90
7196;DHT22;3639;51.308;5.624;2024-03-06T06:47:47;2.30;99.90
7196;DHT22;3639;51.308;5.624;2024-03-06T06:50:14;2.40;99.90
7196;DHT22;3639;51.308;5.624;2024-03-06T06:52:41;2.50;99.90
7196;DHT22;3639;51.308;5.624;2024-03-06T06:55:07;2.50;99.90
7196;DHT22;3639;51.308;5.624;2024-03-06T06:57:34;2.50;99.90
7196;DHT22;3639;51.308;5.624;2024-03-06T07:00:01;2.50;99.90
7196;DHT22;3639;51.308;5.624;2024-03-06T07:02:32;2.60;99.90
7196;DHT22;3639;51.308;5.624;2024-03-06T07:04:58;2.60;99.90
7196;DHT22;3639;51.308;5.624;2024-03-06T07:07:24;2.60;99.90
7196;DHT22;3639;51.308;5.624;2024-03-06T07:09:50;2.70;99.90
7196;DHT22;3639;51.308;5.624;2024-03-06T07:12:15;2.70;99.90
7196;DHT22;3639;51.308;5.624;2024-03-06T07:14:41;2.70;99.90
7196;DHT22;3639;51.308;5.624;2024-03-06T07:17:06;2.80;99.90
7196;DHT22;3639;51.308;5.624;2024-03-06T07:19:32;2.80;99.90
7196;DHT22;3639;51.308;5.624;2024-03-06T07:21:58;2.80;99.90
7196;DHT22;3639;51.308;5.624;2024-03-06T07:24:23;2.90;99.90
7196;DHT22;3639;51.308;5.624;2024-03-06T07:26:49;2.90;99.90
7196;DHT22;3639;51.308;5.624;2024-03-06T07:29:15;3.00;99.90
7196;DHT22;3639;51.308;5.624;2024-03-06T07:31:41;3.10;99.90
7196;DHT22;3639;51.308;5.624;2024-03-06T07:34:08;3.20;99.90
7196;DHT22;3639;51.308;5.624;2024-03-06T07:36:34;3.30;99.90
7196;DHT22;3639;51.308;5.624;2024-03-06T07:39:03;3.50;99.90
7196;DHT22;3639;51.308;5.624;2024-03-06T07:41:30;3.70;99.90
7196;DHT22;3639;51.308;5.624;2024-03-06T07:43:55;3.90;99.90
7196;DHT22;3639;51.308;5.624;2024-03-06T07:46:21;4.10;99.90
7196;DHT22;3639;51.308;5.624;2024-03-06T07:48:47;4.30;99.90
7196;DHT22;3639;51.308;5.624;2024-03-06T07:51:14;4.40;99.90
7196;DHT22;3639;51.308;5.624;2024-03-06T07:53:40;4.50;99.90
7196;DHT22;3639;51.308;5.624;2024-03-06T07:56:05;4.70;99.90
7196;DHT22;3639;51.308;5.624;2024-03-06T07:58:31;4.90;99.90
7196;DHT22;3639;51.308;5.624;2024-03-06T08:00:57;5.00;99.90
7196;DHT22;3639;51.308;5.624;2024-03-06T08:03:23;5.10;99.90
7196;DHT22;3639;51.308;5.624;2024-03-06T08:05:53;5.20;99.90
7196;DHT22;3639;51.308;5.624;2024-03-06T08:08:18;5.30;99.90
7196;DHT22;3639;51.308;5.624;2024-03-06T08:10:44;5.30;99.90
7196;DHT22;3639;51.308;5.624;2024-03-06T08:13:10;5.40;99.90
7196;DHT22;3639;51.308;5.624;2024-03-06T08:15:36;5.50;99.90
7196;DHT22;3639;51.308;5.624;2024-03-06T08:18:02;5.60;99.90
7196;DHT22;3639;51.308;5.624;2024-03-06T08:20:29;5.70;99.90
7196;DHT22;3639;51.308;5.624;2024-03-06T08:22:56;5.80;99.90
7196;DHT22;3639;51.308;5.624;2024-03-06T08:25:22;5.90;99.90
7196;DHT22;3639;51.308;5.624;2024-03-06T08:27:48;6.00;99.90
7196;DHT22;3639;51.308;5.624;2024-03-06T08:30:13;6.10;99.90
7196;DHT22;3639;51.308;5.624;2024-03-06T08:32:39;6.30;99.90
7196;DHT22;3639;51.308;5.624;2024-03-06T08:35:08;6.40;99.90
7196;DHT22;3639;51.308;5.624;2024-03-06T08:37:40;6.50;99.90
7196;DHT22;3639;51.308;5.624;2024-03-06T08:40:09;6.70;99.90
7196;DHT22;3639;51.308;5.624;2024-03-06T08:42:43;6.80;99.90
7196;DHT22;3639;51.308;5.624;2024-03-06T08:45:09;7.00;99.90
7196;DHT22;3639;51.308;5.624;2024-03-06T08:47:35;7.10;99.90
7196;DHT22;3639;51.308;5.624;2024-03-06T08:50:02;7.20;99.90
7196;DHT22;3639;51.308;5.624;2024-03-06T08:52:28;7.30;99.90
7196;DHT22;3639;51.308;5.624;2024-03-06T08:54:56;7.40;99.90
7196;DHT22;3639;51.308;5.624;2024-03-06T08:57:22;7.60;99.90
7196;DHT22;3639;51.308;5.624;2024-03-06T08:59:47;7.80;99.90
7196;DHT22;3639;51.308;5.624;2024-03-06T09:02:14;7.90;99.90
7196;DHT22;3639;51.308;5.624;2024-03-06T09:04:41;8.10;99.90
7196;DHT22;3639;51.308;5.624;2024-03-06T09:07:08;8.20;99.90
7196;DHT22;3639;51.308;5.624;2024-03-06T09:09:35;8.30;99.90
7196;DHT22;3639;51.308;5.624;2024-03-06T09:12:07;8.40;99.90
7196;DHT22;3639;51.308;5.624;2024-03-06T09:14:36;8.40;99.90
7196;DHT22;3639;51.308;5.624;2024-03-06T09:17:02;8.40;99.90
7196;DHT22;3639;51.308;5.624;2024-03-06T09:19:28;8.30;99.90
7196;DHT22;3639;51.308;5.624;2024-03-06T09:21:55;8.30;99.90
7196;DHT22;3639;51.308;5.624;2024-03-06T09:24:22;8.20;99.90
7196;DHT22;3639;51.308;5.624;2024-03-06T09:26:52;8.30;99.90
7196;DHT22;3639;51.308;5.624;2024-03-06T09:29:18;8.30;99.90
7196;DHT22;3639;51.308;5.624;2024-03-06T09:31:44;8.30;99.90
7196;DHT22;3639;51.308;5.624;2024-03-06T09:34:11;8.30;99.90
7196;DHT22;3639;51.308;5.624;2024-03-06T09:36:42;8.30;99.90
7196;DHT22;3639;51.308;5.624;2024-03-06T09:39:18;8.30;99.90
7196;DHT22;3639;51.308;5.624;2024-03-06T09:41:51;8.30;99.90
7196;DHT22;3639;51.308;5.624;2024-03-06T09:44:18;8.30;99.90
7196;DHT22;3639;51.308;5.624;2024-03-06T09:46:44;8.40;99.90
7196;DHT22;3639;51.308;5.624;2024-03-06T09:49:15;8.40;99.90
7196;DHT22;3639;51.308;5.624;2024-03-06T09:51:50;8.50;99.90
7196;DHT22;3639;51.308;5.624;2024-03-06T09:54:16;8.50;99.90
7196;DHT22;3639;51.308;5.624;2024-03-06T09:56:43;8.50;99.90
7196;DHT22;3639;51.308;5.624;2024-03-06T09:59:09;8.60;99.90
7196;DHT22;3639;51.308;5.624;2024-03-06T10:01:39;8.60;99.90
7196;DHT22;3639;51.308;5.624;2024-03-06T10:04:25;8.60;99.90
7196;DHT22;3639;51.308;5.624;2024-03-06T10:06:59;8.70;99.90
7196;DHT22;3639;51.308;5.624;2024-03-06T10:09:27;8.80;99.90
7196;DHT22;3639;51.308;5.624;2024-03-06T10:11:53;8.90;99.90
7196;DHT22;3639;51.308;5.624;2024-03-06T10:14:22;9.00;99.90
7196;DHT22;3639;51.308;5.624;2024-03-06T10:17:01;9.00;99.90
7196;DHT22;3639;51.308;5.624;2024-03-06T10:19:29;9.00;99.90
7196;DHT22;3639;51.308;5.624;2024-03-06T10:21:58;9.10;99.90
7196;DHT22;3639;51.308;5.624;2024-03-06T10:24:25;9.10;99.90
7196;DHT22;3639;51.308;5.624;2024-03-06T10:26:52;9.20;99.90
7196;DHT22;3639;51.308;5.624;2024-03-06T10:29:21;9.40;99.90
7196;DHT22;3639;51.308;5.624;2024-03-06T10:31:51;9.50;99.90
7196;DHT22;3639;51.308;5.624;2024-03-06T10:34:20;9.80;99.90
7196;DHT22;3639;51.308;5.624;2024-03-06T10:36:55;9.90;99.90
7196;DHT22;3639;51.308;5.624;2024-03-06T10:39:21;10.10;99.90
7196;DHT22;3639;51.308;5.624;2024-03-06T10:41:55;10.30;99.90
7196;DHT22;3639;51.308;5.624;2024-03-06T10:44:23;10.50;99.90
7196;DHT22;3639;51.308;5.624;2024-03-06T10:46:56;10.70;99.90
7196;DHT22;3639;51.308;5.624;2024-03-06T10:49:25;10.80;99.90
7196;DHT22;3639;51.308;5.624;2024-03-06T10:51:52;10.90;99.90
7196;DHT22;3639;51.308;5.624;2024-03-06T10:54:19;11.00;99.90
7196;DHT22;3639;51.308;5.624;2024-03-06T10:56:45;11.10;99.90
7196;DHT22;3639;51.308;5.624;2024-03-06T10:59:11;11.20;99.90
7196;DHT22;3639;51.308;5.624;2024-03-06T11:01:41;11.20;99.90
7196;DHT22;3639;51.308;5.624;2024-03-06T11:04:09;11.20;99.90
7196;DHT22;3639;51.308;5.624;2024-03-06T11:06:37;11.30;99.90
7196;DHT22;3639;51.308;5.624;2024-03-06T11:09:03;11.40;99.90
7196;DHT22;3639;51.308;5.624;2024-03-06T11:11:29;11.60;99.90
7196;DHT22;3639;51.308;5.624;2024-03-06T11:14:04;11.50;99.90
7196;DHT22;3639;51.308;5.624;2024-03-06T11:16:30;11.60;99.90
7196;DHT22;3639;51.308;5.624;2024-03-06T11:19:08;11.70;99.90
7196;DHT22;3639;51.308;5.624;2024-03-06T11:21:34;11.70;99.90
7196;DHT22;3639;51.308;5.624;2024-03-06T11:24:19;11.90;99.90
7196;DHT22;3639;51.308;5.624;2024-03-06T11:26:49;12.00;99.90
7196;DHT22;3639;51.308;5.624;2024-03-06T11:29:18;12.20;99.90
7196;DHT22;3639;51.308;5.624;2024-03-06T11:32:07;12.60;99.90
7196;DHT22;3639;51.308;5.624;2024-03-06T11:34:34;12.90;99.90
7196;DHT22;3639;51.308;5.624;2024-03-06T11:37:03;13.00;99.90
7196;DHT22;3639;51.308;5.624;2024-03-06T11:39:33;13.00;99.90
7196;DHT22;3639;51.308;5.624;2024-03-06T11:41:59;12.90;99.90
7196;DHT22;3639;51.308;5.624;2024-03-06T11:44:27;12.80;99.90
7196;DHT22;3639;51.308;5.624;2024-03-06T11:47:04;12.70;99.90
7196;DHT22;3639;51.308;5.624;2024-03-06T11:49:32;12.50;99.90
7196;DHT22;3639;51.308;5.624;2024-03-06T11:52:06;12.30;99.90
7196;DHT22;3639;51.308;5.624;2024-03-06T11:54:33;12.20;99.90
7196;DHT22;3639;51.308;5.624;2024-03-06T11:57:00;12.10;99.90
7196;DHT22;3639;51.308;5.624;2024-03-06T11:59:28;12.10;99.90
7196;DHT22;3639;51.308;5.624;2024-03-06T12:02:02;12.00;99.90
7196;DHT22;3639;51.308;5.624;2024-03-06T12:04:35;12.00;99.90
7196;DHT22;3639;51.308;5.624;2024-03-06T12:07:02;11.90;99.90
7196;DHT22;3639;51.308;5.624;2024-03-06T12:09:35;11.90;99.90
7196;DHT22;3639;51.308;5.624;2024-03-06T12:12:01;11.90;99.90
7196;DHT22;3639;51.308;5.624;2024-03-06T12:14:30;11.80;99.90
7196;DHT22;3639;51.308;5.624;2024-03-06T12:16:59;11.70;99.90
7196;DHT22;3639;51.308;5.624;2024-03-06T12:19:28;11.60;99.80
7196;DHT22;3639;51.308;5.624;2024-03-06T12:21:55;11.70;99.90
7196;DHT22;3639;51.308;5.624;2024-03-06T12:24:20;11.80;99.90
7196;DHT22;3639;51.308;5.624;2024-03-06T12:26:47;12.00;99.90
7196;DHT22;3639;51.308;5.624;2024-03-06T12:29:23;12.00;99.90
7196;DHT22;3639;51.308;5.624;2024-03-06T12:31:48;12.20;99.90
7196;DHT22;3639;51.308;5.624;2024-03-06T12:34:14;12.20;99.90
7196;DHT22;3639;51.308;5.624;2024-03-06T12:36:43;12.10;99.40
7196;DHT22;3639;51.308;5.624;2024-03-06T12:39:08;12.00;99.70
7196;DHT22;3639;51.308;5.624;2024-03-06T12:41:39;12.00;99.90
7196;DHT22;3639;51.308;5.624;2024-03-06T12:44:05;11.90;99.90
7196;DHT22;3639;51.308;5.624;2024-03-06T12:46:32;11.80;99.90
7196;DHT22;3639;51.308;5.624;2024-03-06T12:48:58;11.70;99.90
7196;DHT22;3639;51.308;5.624;2024-03-06T12:51:23;11.50;99.90
7196;DHT22;3639;51.308;5.624;2024-03-06T12:53:49;11.30;99.90
7196;DHT22;3639;51.308;5.624;2024-03-06T12:56:15;11.40;99.90
7196;DHT22;3639;51.308;5.624;2024-03-06T12:58:41;11.50;99.90
7196;DHT22;3639;51.308;5.624;2024-03-06T13:01:06;11.60;99.90
7196;DHT22;3639;51.308;5.624;2024-03-06T13:03:32;11.50;99.90
7196;DHT22;3639;51.308;5.624;2024-03-06T13:05:58;11.60;99.90
7196;DHT22;3639;51.308;5.624;2024-03-06T13:08:24;11.70;99.90
7196;DHT22;3639;51.308;5.624;2024-03-06T13:10:50;11.80;99.70
7196;DHT22;3639;51.308;5.624;2024-03-06T13:13:16;11.90;99.50
7196;DHT22;3639;51.308;5.624;2024-03-06T13:15:41;11.90;99.50
7196;DHT22;3639;51.308;5.624;2024-03-06T13:18:08;12.00;99.90
7196;DHT22;3639;51.308;5.624;2024-03-06T13:20:33;12.00;99.20
7196;DHT22;3639;51.308;5.624;2024-03-06T13:22:59;11.90;99.20
7196;DHT22;3639;51.308;5.624;2024-03-06T13:25:25;11.80;99.50
7196;DHT22;3639;51.308;5.624;2024-03-06T13:27:51;11.70;99.50
7196;DHT22;3639;51.308;5.624;2024-03-06T13:30:20;11.70;99.00
7196;DHT22;3639;51.308;5.624;2024-03-06T13:32:46;11.70;99.20
7196;DHT22;3639;51.308;5.624;2024-03-06T13:35:12;11.70;99.40
7196;DHT22;3639;51.308;5.624;2024-03-06T13:37:40;11.70;99.00
7196;DHT22;3639;51.308;5.624;2024-03-06T13:40:07;11.70;99.20
7196;DHT22;3639;51.308;5.624;2024-03-06T13:42:34;11.70;99.10
7196;DHT22;3639;51.308;5.624;2024-03-06T13:45:01;11.80;99.10
7196;DHT22;3639;51.308;5.624;2024-03-06T13:47:26;11.80;99.10
7196;DHT22;3639;51.308;5.624;2024-03-06T13:49:52;11.90;98.30
7196;DHT22;3639;51.308;5.624;2024-03-06T13:52:18;11.90;98.40
7196;DHT22;3639;51.308;5.624;2024-03-06T13:54:46;11.90;98.70
7196;DHT22;3639;51.308;5.624;2024-03-06T13:57:13;11.90;98.30
7196;DHT22;3639;51.308;5.624;2024-03-06T13:59:39;11.70;97.80
7196;DHT22;3639;51.308;5.624;2024-03-06T14:02:06;11.70;97.80
7196;DHT22;3639;51.308;5.624;2024-03-06T14:04:32;11.60;98.10
7196;DHT22;3639;51.308;5.624;2024-03-06T14:06:58;11.60;98.30
7196;DHT22;3639;51.308;5.624;2024-03-06T14:09:24;11.70;97.50
7196;DHT22;3639;51.308;5.624;2024-03-06T14:11:51;11.60;97.60
7196;DHT22;3639;51.308;5.624;2024-03-06T14:14:17;11.70;97.90
7196;DHT22;3639;51.308;5.624;2024-03-06T14:16:43;11.70;97.30
7196;DHT22;3639;51.308;5.624;2024-03-06T14:19:09;11.80;97.80
7196;DHT22;3639;51.308;5.624;2024-03-06T14:21:36;11.80;97.90
7196;DHT22;3639;51.308;5.624;2024-03-06T14:24:02;11.80;97.50
7196;DHT22;3639;51.308;5.624;2024-03-06T14:26:30;11.80;97.60
7196;DHT22;3639;51.308;5.624;2024-03-06T14:28:55;11.80;97.50
7196;DHT22;3639;51.308;5.624;2024-03-06T14:31:21;11.80;97.60
7196;DHT22;3639;51.308;5.624;2024-03-06T14:33:46;11.70;97.40
7196;DHT22;3639;51.308;5.624;2024-03-06T14:36:12;11.70;98.00
7196;DHT22;3639;51.308;5.624;2024-03-06T14:38:38;11.70;97.70
7196;DHT22;3639;51.308;5.624;2024-03-06T14:41:04;11.60;97.40
7196;DHT22;3639;51.308;5.624;2024-03-06T14:43:31;11.60;97.50
7196;DHT22;3639;51.308;5.624;2024-03-06T14:46:00;11.50;97.30
7196;DHT22;3639;51.308;5.624;2024-03-06T14:48:25;11.40;97.40
7196;DHT22;3639;51.308;5.624;2024-03-06T14:50:51;11.30;97.50
7196;DHT22;3639;51.308;5.624;2024-03-06T14:53:16;11.30;97.40
7196;DHT22;3639;51.308;5.624;2024-03-06T14:55:45;11.20;96.90
7196;DHT22;3639;51.308;5.624;2024-03-06T14:58:10;11.20;96.70
7196;DHT22;3639;51.308;5.624;2024-03-06T15:00:37;11.10;96.60
7196;DHT22;3639;51.308;5.624;2024-03-06T15:03:03;11.10;96.40
7196;DHT22;3639;51.308;5.624;2024-03-06T15:05:28;11.10;96.30
7196;DHT22;3639;51.308;5.624;2024-03-06T15:07:57;11.10;96.60
7196;DHT22;3639;51.308;5.624;2024-03-06T15:10:24;11.10;96.30
7196;DHT22;3639;51.308;5.624;2024-03-06T15:12:49;11.00;96.00
7196;DHT22;3639;51.308;5.624;2024-03-06T15:15:15;11.10;95.80
7196;DHT22;3639;51.308;5.624;2024-03-06T15:17:41;11.20;96.00
7196;DHT22;3639;51.308;5.624;2024-03-06T15:20:07;11.30;95.50
7196;DHT22;3639;51.308;5.624;2024-03-06T15:22:37;11.30;95.10
7196;DHT22;3639;51.308;5.624;2024-03-06T15:25:17;11.30;95.20
7196;DHT22;3639;51.308;5.624;2024-03-06T15:27:43;11.20;95.50
7196;DHT22;3639;51.308;5.624;2024-03-06T15:30:11;11.20;95.70
7196;DHT22;3639;51.308;5.624;2024-03-06T15:32:39;11.20;95.80
7196;DHT22;3639;51.308;5.624;2024-03-06T15:35:05;11.20;96.20
7196;DHT22;3639;51.308;5.624;2024-03-06T15:37:31;11.20;95.80
7196;DHT22;3639;51.308;5.624;2024-03-06T15:39:57;11.20;96.00
7196;DHT22;3639;51.308;5.624;2024-03-06T15:42:23;11.20;96.70
7196;DHT22;3639;51.308;5.624;2024-03-06T15:44:52;11.20;96.50
7196;DHT22;3639;51.308;5.624;2024-03-06T15:47:19;11.40;96.50
7196;DHT22;3639;51.308;5.624;2024-03-06T15:49:46;11.50;96.70
7196;DHT22;3639;51.308;5.624;2024-03-06T15:52:12;11.60;96.40
7196;DHT22;3639;51.308;5.624;2024-03-06T15:54:39;11.60;95.80
7196;DHT22;3639;51.308;5.624;2024-03-06T15:57:05;11.50;95.90
7196;DHT22;3639;51.308;5.624;2024-03-06T15:59:35;11.40;96.00
7196;DHT22;3639;51.308;5.624;2024-03-06T16:02:01;11.30;96.80
7196;DHT22;3639;51.308;5.624;2024-03-06T16:04:28;11.20;97.30
7196;DHT22;3639;51.308;5.624;2024-03-06T16:06:54;11.00;97.70
7196;DHT22;3639;51.308;5.624;2024-03-06T16:09:20;10.90;97.80